createdAt,value
2023-09-10T00:01:21.078Z,98883.41
2023-09-10T00:03:49.082Z,98891.22
2023-09-10T00:06:16.547Z,98885.16
2023-09-10T00:08:44.091Z,98888.28
2023-09-10T00:11:11.807Z,98893.00
2023-09-10T00:13:39.840Z,98880.59
2023-09-10T00:16:07.929Z,98890.81
2023-09-10T00:18:36.679Z,98880.00
2023-09-10T00:21:04.622Z,98884.97
2023-09-10T00:23:31.776Z,98874.81
2023-09-10T00:25:59.380Z,98881.81
2023-09-10T00:28:27.616Z,98883.94
2023-09-10T00:30:55.549Z,98882.25
2023-09-10T00:33:23.205Z,98867.69
2023-09-10T00:35:51.056Z,98867.69
2023-09-10T00:38:18.773Z,98875.25
2023-09-10T00:40:46.238Z,98876.53
2023-09-10T00:43:13.714Z,98875.03
2023-09-10T00:45:40.950Z,98870.91
2023-09-10T00:48:08.099Z,98875.16
2023-09-10T00:50:35.917Z,98871.28
2023-09-10T00:53:03.363Z,98881.59
2023-09-10T00:55:30.959Z,98887.56
2023-09-10T00:57:58.473Z,98873.41
2023-09-10T01:00:27.094Z,98878.56
2023-09-10T01:02:54.394Z,98877.00
2023-09-10T01:05:22.077Z,98881.31
2023-09-10T01:07:49.123Z,98885.91
2023-09-10T01:10:16.847Z,98873.31
2023-09-10T01:13:02.227Z,98873.38
2023-09-10T01:15:41.292Z,98868.78
2023-09-10T01:18:17.729Z,98869.22
2023-09-10T01:20:51.613Z,98865.84
2023-09-10T01:23:39.254Z,98869.22
2023-09-10T01:26:06.823Z,98868.13
2023-09-10T01:28:34.114Z,98862.28
2023-09-10T01:31:02.111Z,98860.78
2023-09-10T01:33:36.611Z,98861.16
2023-09-10T01:36:11.503Z,98858.84
2023-09-10T01:39:03.047Z,98845.81
2023-09-10T01:41:31.005Z,98851.28
2023-09-10T01:43:59.013Z,98848.63
2023-09-10T01:46:26.525Z,98851.28
2023-09-10T01:48:54.477Z,98863.19
2023-09-10T01:51:22.202Z,98854.47
2023-09-10T01:53:50.081Z,98857.66
2023-09-10T01:56:17.664Z,98849.59
2023-09-10T01:58:45.448Z,98844.53
2023-09-10T02:01:12.983Z,98849.75
2023-09-10T02:03:40.381Z,98857.72
2023-09-10T02:06:07.913Z,98852.44
2023-09-10T02:08:35.631Z,98860.97
2023-09-10T02:11:06.328Z,98841.06
2023-09-10T02:13:34.111Z,98845.56
2023-09-10T02:16:02.268Z,98847.19
2023-09-10T02:18:30.555Z,98860.94
2023-09-10T02:20:58.537Z,98860.59
2023-09-10T02:23:26.862Z,98850.06
2023-09-10T02:25:54.227Z,98847.63
2023-09-10T02:28:24.584Z,98851.25
2023-09-10T02:30:52.287Z,98842.69
2023-09-10T02:33:20.061Z,98848.91
2023-09-10T02:35:47.829Z,98861.88
2023-09-10T02:38:15.304Z,98850.56
2023-09-10T02:40:44.113Z,98854.34
2023-09-10T02:43:11.751Z,98861.81
2023-09-10T02:45:39.730Z,98849.47
2023-09-10T02:48:07.667Z,98847.56
2023-09-10T02:50:35.203Z,98850.94
2023-09-10T02:53:02.668Z,98844.59
2023-09-10T02:55:30.024Z,98853.84
2023-09-10T02:57:57.288Z,98844.34
2023-09-10T03:00:26.527Z,98846.16
2023-09-10T03:02:55.464Z,98838.88
2023-09-10T03:05:23.415Z,98842.56
2023-09-10T03:07:55.467Z,98835.00
2023-09-10T03:10:22.798Z,98851.34
2023-09-10T03:12:50.191Z,98843.00
2023-09-10T03:15:17.891Z,98842.31
2023-09-10T03:17:45.586Z,98835.31
2023-09-10T03:20:13.311Z,98824.00
2023-09-10T03:22:41.430Z,98831.38
2023-09-10T03:25:09.586Z,98834.56
2023-09-10T03:27:37.561Z,98832.88
2023-09-10T03:30:08.614Z,98826.03
2023-09-10T03:32:36.322Z,98820.69
2023-09-10T03:35:05.552Z,98835.50
2023-09-10T03:37:33.225Z,98817.66
2023-09-10T03:40:01.140Z,98820.03
2023-09-10T03:42:28.481Z,98826.09
2023-09-10T03:44:56.025Z,98815.34
2023-09-10T03:47:24.023Z,98801.66
2023-09-10T03:49:51.368Z,98819.06
2023-09-10T03:52:20.527Z,98801.19
2023-09-10T03:54:48.762Z,98812.34
2023-09-10T03:57:16.271Z,98803.66
2023-09-10T03:59:44.397Z,98809.81
2023-09-10T04:02:14.824Z,98799.25
2023-09-10T04:04:42.791Z,98802.38
2023-09-10T04:07:10.248Z,98792.75
2023-09-10T04:09:38.187Z,98788.47
2023-09-10T04:12:06.092Z,98783.53
2023-09-10T04:14:33.927Z,98785.47
2023-09-10T04:17:01.617Z,98790.53
2023-09-10T04:19:28.785Z,98782.72
2023-09-10T04:21:56.320Z,98797.03
2023-09-10T04:24:24.588Z,98782.94
2023-09-10T04:26:52.190Z,98787.38
2023-09-10T04:29:21.225Z,98779.91
2023-09-10T04:31:49.275Z,98774.19
2023-09-10T04:34:16.969Z,98774.63
2023-09-10T04:36:44.388Z,98763.97
2023-09-10T04:39:12.236Z,98767.44
2023-09-10T04:44:10.323Z,98752.28
2023-09-10T04:46:38.393Z,98751.09
2023-09-10T04:49:06.633Z,98749.31
2023-09-10T04:51:34.044Z,98762.09
2023-09-10T04:54:01.945Z,98750.13
2023-09-10T04:56:29.147Z,98748.34
2023-09-10T04:58:56.641Z,98761.53
2023-09-10T05:01:24.172Z,98751.84
2023-09-10T05:03:51.471Z,98753.25
2023-09-10T05:06:20.933Z,98750.91
2023-09-10T05:08:48.994Z,98740.50
2023-09-10T05:11:18.286Z,98751.06
2023-09-10T05:13:45.667Z,98748.31
2023-09-10T05:16:13.281Z,98738.50
2023-09-10T05:18:42.272Z,98750.59
2023-09-10T05:21:10.542Z,98742.16
2023-09-10T05:23:38.729Z,98746.00
2023-09-10T05:26:06.779Z,98735.59
2023-09-10T05:28:34.110Z,98728.75
2023-09-10T05:31:09.100Z,98727.03
2023-09-10T05:33:39.334Z,98726.34
2023-09-10T05:36:06.993Z,98730.78
2023-09-10T05:38:34.270Z,98711.97
2023-09-10T05:41:03.195Z,98721.81
2023-09-10T05:43:31.202Z,98716.59
2023-09-10T05:45:58.562Z,98712.22
2023-09-10T05:48:27.082Z,98711.94
2023-09-10T05:50:58.248Z,98702.56
2023-09-10T05:53:27.065Z,98707.47
2023-09-10T05:55:55.003Z,98698.41
2023-09-10T05:58:22.422Z,98692.06
2023-09-10T06:00:52.884Z,98695.09
2023-09-10T06:03:20.336Z,98692.59
2023-09-10T06:05:49.607Z,98688.50
2023-09-10T06:08:17.284Z,98688.22
2023-09-10T06:10:45.607Z,98687.38
2023-09-10T06:13:13.414Z,98671.13
2023-09-10T06:15:41.764Z,98669.72
2023-09-10T06:18:09.115Z,98666.13
2023-09-10T06:20:36.569Z,98656.50
2023-09-10T06:23:04.886Z,98653.88
2023-09-10T06:25:33.589Z,98649.59
2023-09-10T06:28:01.942Z,98652.94
2023-09-10T06:30:29.728Z,98653.53
2023-09-10T06:32:57.570Z,98652.78
2023-09-10T06:35:26.609Z,98654.75
2023-09-10T06:37:54.617Z,98651.22
2023-09-10T06:40:21.963Z,98637.84
2023-09-10T06:42:49.877Z,98637.84
2023-09-10T06:45:32.388Z,98639.16
2023-09-10T06:47:59.754Z,98630.03
2023-09-10T06:50:27.266Z,98632.38
2023-09-10T06:52:54.761Z,98623.25
2023-09-10T06:55:22.463Z,98632.63
2023-09-10T06:57:50.230Z,98624.78
2023-09-10T07:00:18.526Z,98621.53
2023-09-10T07:02:46.538Z,98622.19
2023-09-10T07:05:14.440Z,98627.44
2023-09-10T07:07:41.924Z,98627.56
2023-09-10T07:10:11.356Z,98613.97
2023-09-10T07:12:38.451Z,98623.81
2023-09-10T07:15:06.652Z,98614.31
2023-09-10T07:17:34.123Z,98607.13
2023-09-10T07:20:01.640Z,98597.72
2023-09-10T07:22:29.203Z,98600.69
2023-09-10T07:24:56.984Z,98605.06
2023-09-10T07:27:24.100Z,98596.31
2023-09-10T07:29:51.904Z,98590.84
2023-09-10T07:32:19.375Z,98587.84
2023-09-10T07:34:46.663Z,98578.69
2023-09-10T07:37:14.584Z,98585.88
2023-09-10T07:39:42.068Z,98579.19
2023-09-10T07:42:09.845Z,98588.34
2023-09-10T07:44:37.243Z,98584.84
2023-09-10T07:47:05.806Z,98572.75
2023-09-10T07:49:35.635Z,98570.66
2023-09-10T07:52:05.447Z,98568.75
2023-09-10T07:54:32.722Z,98563.19
2023-09-10T07:57:00.607Z,98551.38
2023-09-10T07:59:28.121Z,98565.81
2023-09-10T08:01:55.341Z,98562.72
2023-09-10T08:04:22.947Z,98568.16
2023-09-10T08:06:50.441Z,98552.91
2023-09-10T08:09:17.587Z,98556.72
2023-09-10T08:11:45.101Z,98548.69
2023-09-10T08:14:13.016Z,98544.84
2023-09-10T08:16:40.695Z,98550.03
2023-09-10T08:19:08.371Z,98542.91
2023-09-10T08:21:35.472Z,98546.91
2023-09-10T08:24:03.171Z,98539.66
2023-09-10T08:26:30.412Z,98547.59
2023-09-10T08:28:57.678Z,98537.00
2023-09-10T08:31:25.461Z,98532.78
2023-09-10T08:33:52.612Z,98524.00
2023-09-10T08:36:20.270Z,98520.84
2023-09-10T08:38:48.784Z,98534.50
2023-09-10T08:41:49.955Z,98533.09
2023-09-10T08:44:20.901Z,98541.06
2023-09-10T08:46:50.272Z,98525.44
2023-09-10T08:49:17.494Z,98519.66
2023-09-10T08:51:45.049Z,98522.41
2023-09-10T08:54:12.638Z,98520.72
2023-09-10T08:56:39.905Z,98531.91
2023-09-10T08:59:07.325Z,98531.09
2023-09-10T09:01:35.045Z,98525.97
2023-09-10T09:04:02.886Z,98516.69
2023-09-10T09:06:31.048Z,98523.91
2023-09-10T09:08:58.467Z,98511.44
2023-09-10T09:11:26.077Z,98523.78
2023-09-10T09:13:53.678Z,98516.88
2023-09-10T09:16:22.110Z,98507.44
2023-09-10T09:18:49.774Z,98500.19
2023-09-10T09:21:22.031Z,98504.28
2023-09-10T09:24:09.704Z,98509.97
2023-09-10T09:26:37.532Z,98504.19
2023-09-10T09:29:05.303Z,98498.91
2023-09-10T09:31:33.645Z,98508.34
2023-09-10T09:34:00.845Z,98505.25
2023-09-10T09:36:28.920Z,98500.34
2023-09-10T09:38:56.872Z,98492.34
2023-09-10T09:41:24.174Z,98499.91
2023-09-10T09:43:52.046Z,98503.47
2023-09-10T09:46:19.611Z,98499.38
2023-09-10T09:48:47.484Z,98490.31
2023-09-10T09:51:15.315Z,98497.25
2023-09-10T09:53:43.780Z,98512.81
2023-09-10T09:56:11.868Z,98508.13
2023-09-10T09:58:39.854Z,98509.97
2023-09-10T10:01:08.376Z,98504.56
2023-09-10T10:03:36.018Z,98502.88
2023-09-10T10:06:04.029Z,98492.91
2023-09-10T10:08:31.627Z,98503.22
2023-09-10T10:10:59.251Z,98500.59
2023-09-10T10:13:27.735Z,98506.97
2023-09-10T10:15:57.569Z,98493.28
2023-09-10T10:18:29.919Z,98492.16
2023-09-10T10:20:58.933Z,98488.63
2023-09-10T10:23:27.253Z,98492.72
2023-09-10T10:25:55.280Z,98495.50
2023-09-10T10:28:22.728Z,98501.28
2023-09-10T10:30:56.435Z,98503.28
2023-09-10T10:33:25.393Z,98480.03
2023-09-10T10:36:16.217Z,98480.56
2023-09-10T10:38:46.997Z,98492.31
2023-09-10T10:41:18.891Z,98482.53
2023-09-10T10:43:48.333Z,98475.50
2023-09-10T10:46:15.727Z,98484.84
2023-09-10T10:48:43.967Z,98487.59
2023-09-10T10:51:14.533Z,98482.16
2023-09-10T10:53:42.622Z,98472.97
2023-09-10T10:56:10.181Z,98469.19
2023-09-10T10:58:41.488Z,98479.31
2023-09-10T11:01:11.711Z,98469.75
2023-09-10T11:03:39.265Z,98475.81
2023-09-10T11:06:07.931Z,98464.94
2023-09-10T11:08:36.330Z,98459.84
2023-09-10T11:11:22.843Z,98465.59
2023-09-10T11:14:07.298Z,98445.72
2023-09-10T11:16:39.889Z,98441.69
2023-09-10T11:19:07.145Z,98446.38
2023-09-10T11:21:56.181Z,98460.53
2023-09-10T11:24:23.541Z,98454.59
2023-09-10T11:26:51.146Z,98448.88
2023-09-10T11:29:21.471Z,98447.56
2023-09-10T11:31:49.007Z,98448.41
2023-09-10T11:34:16.360Z,98446.53
2023-09-10T11:36:44.975Z,98440.81
2023-09-10T11:39:16.316Z,98447.34
2023-09-10T11:41:52.926Z,98446.81
2023-09-10T11:44:20.691Z,98455.31
2023-09-10T11:46:49.406Z,98444.41
2023-09-10T11:49:16.659Z,98457.81
2023-09-10T11:51:48.882Z,98442.56
2023-09-10T11:54:17.779Z,98437.13
2023-09-10T11:56:56.971Z,98442.88
2023-09-10T11:59:30.852Z,98439.91
2023-09-10T12:01:58.878Z,98450.03
2023-09-10T12:04:33.552Z,98433.38
2023-09-10T12:07:04.227Z,98437.75
2023-09-10T12:09:32.334Z,98439.13
2023-09-10T12:12:07.823Z,98442.16
2023-09-10T12:14:35.478Z,98442.72
2023-09-10T12:17:03.997Z,98435.38
2023-09-10T12:19:32.699Z,98447.41
2023-09-10T12:22:00.717Z,98439.72
2023-09-10T12:24:28.044Z,98442.47
2023-09-10T12:26:55.428Z,98436.72
2023-09-10T12:29:23.130Z,98444.66
2023-09-10T12:31:54.162Z,98435.91
2023-09-10T12:34:21.707Z,98429.66
2023-09-10T12:36:49.797Z,98424.44
2023-09-10T12:39:24.802Z,98439.75
2023-09-10T12:42:03.030Z,98440.56
2023-09-10T12:44:31.728Z,98428.53
2023-09-10T12:46:59.518Z,98445.44
2023-09-10T12:49:27.164Z,98428.28
2023-09-10T12:51:56.664Z,98433.44
2023-09-10T12:54:24.454Z,98433.16
2023-09-10T12:56:54.944Z,98431.78
2023-09-10T12:59:22.760Z,98426.00
2023-09-10T13:01:51.108Z,98431.41
2023-09-10T13:04:19.314Z,98437.69
2023-09-10T13:06:47.043Z,98437.13
2023-09-10T13:09:14.705Z,98434.88
2023-09-10T13:11:43.915Z,98439.78
2023-09-10T13:14:11.266Z,98427.25
2023-09-10T13:16:38.783Z,98435.16
2023-09-10T13:19:06.525Z,98429.66
2023-09-10T13:21:34.170Z,98430.47
2023-09-10T13:24:01.619Z,98435.09
2023-09-10T13:26:29.226Z,98440.53
2023-09-10T13:28:57.205Z,98427.41
2023-09-10T13:31:24.517Z,98438.56
2023-09-10T13:33:54.794Z,98433.09
2023-09-10T13:36:22.123Z,98424.31
2023-09-10T13:38:49.685Z,98428.94
2023-09-10T13:41:17.255Z,98430.03
2023-09-10T13:43:45.049Z,98442.75
2023-09-10T13:46:12.693Z,98433.75
2023-09-10T13:48:40.238Z,98426.28
2023-09-10T13:51:09.156Z,98433.63
2023-09-10T13:53:43.504Z,98434.16
2023-09-10T13:56:12.098Z,98434.63
2023-09-10T13:58:39.717Z,98426.69
2023-09-10T14:01:08.827Z,98425.59
2023-09-10T14:03:36.295Z,98439.78
2023-09-10T14:06:05.456Z,98427.53
2023-09-10T14:08:33.097Z,98425.91
2023-09-10T14:11:00.872Z,98426.47
2023-09-10T14:13:28.541Z,98425.09
2023-09-10T14:15:56.107Z,98420.16
2023-09-10T14:18:23.680Z,98422.91
2023-09-10T14:20:51.376Z,98419.91
2023-09-10T14:23:19.190Z,98400.78
2023-09-10T14:25:48.733Z,98411.97
2023-09-10T14:28:19.544Z,98401.03
2023-09-10T14:30:46.869Z,98405.41
2023-09-10T14:33:14.142Z,98398.84
2023-09-10T14:35:43.267Z,98402.91
2023-09-10T14:38:11.093Z,98414.63
2023-09-10T14:40:38.421Z,98409.44
2023-09-10T14:43:09.031Z,98406.75
2023-09-10T14:45:37.618Z,98401.28
2023-09-10T14:48:05.542Z,98409.25
2023-09-10T14:50:33.110Z,98405.19
2023-09-10T14:53:03.606Z,98405.72
2023-09-10T14:55:32.596Z,98406.22
2023-09-10T14:57:59.914Z,98402.13
2023-09-10T15:00:27.398Z,98398.06
2023-09-10T15:02:54.754Z,98402.69
2023-09-10T15:05:22.414Z,98396.75
2023-09-10T15:07:50.220Z,98402.22
2023-09-10T15:10:17.606Z,98395.91
2023-09-10T15:12:45.414Z,98396.69
2023-09-10T15:15:13.240Z,98396.69
2023-09-10T15:17:40.950Z,98390.22
2023-09-10T15:20:11.977Z,98397.03
2023-09-10T15:22:40.173Z,98384.16
2023-09-10T15:25:09.391Z,98374.91
2023-09-10T15:27:37.137Z,98388.00
2023-09-10T15:30:05.321Z,98385.84
2023-09-10T15:32:32.846Z,98383.38
2023-09-10T15:35:00.622Z,98379.00
2023-09-10T15:37:28.545Z,98383.13
2023-09-10T15:39:56.018Z,98381.72
2023-09-10T15:42:23.546Z,98386.69
2023-09-10T15:44:51.044Z,98386.09
2023-09-10T15:47:18.843Z,98376.28
2023-09-10T15:49:46.194Z,98373.28
2023-09-10T15:52:14.547Z,98390.69
2023-09-10T15:54:41.938Z,98383.59
2023-09-10T15:57:09.629Z,98381.72
2023-09-10T15:59:37.077Z,98383.06
2023-09-10T16:02:32.909Z,98375.41
2023-09-10T16:05:01.125Z,98377.25
2023-09-10T16:07:28.721Z,98380.81
2023-09-10T16:09:56.277Z,98384.88
2023-09-10T16:12:23.713Z,98372.31
2023-09-10T16:14:50.908Z,98379.66
2023-09-10T16:17:18.575Z,98373.31
2023-09-10T16:19:46.132Z,98379.16
2023-09-10T16:22:14.680Z,98390.53
2023-09-10T16:24:41.800Z,98381.59
2023-09-10T16:27:09.313Z,98382.81
2023-09-10T16:29:37.455Z,98379.84
2023-09-10T16:32:05.582Z,98382.72
2023-09-10T16:34:32.894Z,98371.41
2023-09-10T16:37:00.396Z,98374.25
2023-09-10T16:39:28.198Z,98376.25
2023-09-10T16:41:55.486Z,98373.31
2023-09-10T16:44:28.663Z,98364.91
2023-09-10T16:46:59.357Z,98363.56
2023-09-10T16:49:27.216Z,98371.13
2023-09-10T16:51:54.583Z,98371.78
2023-09-10T16:54:22.112Z,98372.22
2023-09-10T16:56:49.672Z,98378.19
2023-09-10T16:59:17.501Z,98369.06
2023-09-10T17:01:44.832Z,98376.06
2023-09-10T17:04:12.227Z,98368.81
2023-09-10T17:06:39.761Z,98366.53
2023-09-10T17:09:07.171Z,98368.97
2023-09-10T17:11:35.107Z,98375.13
2023-09-10T17:14:02.613Z,98367.41
2023-09-10T17:16:29.939Z,98373.31
2023-09-10T17:18:57.206Z,98363.34
2023-09-10T17:21:28.069Z,98372.28
2023-09-10T17:23:55.699Z,98356.09
2023-09-10T17:26:23.291Z,98352.72
2023-09-10T17:28:51.431Z,98364.88
2023-09-10T17:31:19.346Z,98357.94
2023-09-10T17:33:46.464Z,98347.19
2023-09-10T17:36:13.841Z,98355.75
2023-09-10T17:38:41.487Z,98351.16
2023-09-10T17:41:08.943Z,98349.44
2023-09-10T17:43:36.849Z,98349.19
2023-09-10T17:46:04.421Z,98349.19
2023-09-10T17:48:31.967Z,98342.97
2023-09-10T17:51:05.175Z,98341.78
2023-09-10T17:53:32.999Z,98335.72
2023-09-10T17:56:00.431Z,98339.56
2023-09-10T17:58:28.439Z,98339.00
2023-09-10T18:00:55.844Z,98334.53
2023-09-10T18:03:27.070Z,98331.47
2023-09-10T18:05:54.295Z,98340.75
2023-09-10T18:08:21.832Z,98338.91
2023-09-10T18:10:51.628Z,98338.09
2023-09-10T18:13:19.007Z,98346.19
2023-09-10T18:15:46.586Z,98347.25
2023-09-10T18:18:14.010Z,98343.94
2023-09-10T18:20:41.809Z,98342.53
2023-09-10T18:23:09.817Z,98338.69
2023-09-10T18:25:36.919Z,98344.91
2023-09-10T18:28:04.632Z,98337.03
2023-09-10T18:30:32.525Z,98338.34
2023-09-10T18:33:00.481Z,98340.69
2023-09-10T18:35:28.120Z,98343.03
2023-09-10T18:37:55.770Z,98331.53
2023-09-10T18:40:23.169Z,98332.59
2023-09-10T18:42:50.536Z,98341.75
2023-09-10T18:45:18.352Z,98343.06
2023-09-10T18:47:51.736Z,98339.63
2023-09-10T18:50:19.187Z,98317.19
2023-09-10T18:52:46.436Z,98336.00
2023-09-10T18:55:15.261Z,98333.66
2023-09-10T18:57:42.478Z,98339.28
2023-09-10T19:00:10.906Z,98340.34
2023-09-10T19:02:38.457Z,98332.47
2023-09-10T19:05:06.578Z,98327.66
2023-09-10T19:07:34.246Z,98330.09
2023-09-10T19:10:01.794Z,98337.88
2023-09-10T19:12:30.108Z,98345.84
2023-09-10T19:14:57.300Z,98328.47
2023-09-10T19:17:24.965Z,98346.91
2023-09-10T19:19:52.625Z,98332.69
2023-09-10T19:22:20.009Z,98332.81
2023-09-10T19:24:47.162Z,98332.44
2023-09-10T19:27:16.919Z,98337.84
2023-09-10T19:29:44.471Z,98335.38
2023-09-10T19:32:11.910Z,98331.72
2023-09-10T19:34:39.522Z,98339.00
2023-09-10T19:37:09.831Z,98331.72
2023-09-10T19:39:38.275Z,98330.06
2023-09-10T19:42:05.905Z,98341.44
2023-09-10T19:44:36.746Z,98333.78
2023-09-10T19:47:04.622Z,98338.38
2023-09-10T19:49:35.211Z,98340.03
2023-09-10T19:52:02.405Z,98323.34
2023-09-10T19:54:30.212Z,98338.47
2023-09-10T19:56:57.755Z,98330.03
2023-09-10T19:59:25.757Z,98342.69
2023-09-10T20:01:54.033Z,98336.72
2023-09-10T20:04:21.304Z,98334.09
2023-09-10T20:06:59.372Z,98328.53
2023-09-10T20:09:27.884Z,98333.13
2023-09-10T20:11:55.145Z,98331.47
2023-09-10T20:14:23.108Z,98331.69
2023-09-10T20:16:50.628Z,98332.53
2023-09-10T20:19:19.012Z,98334.00
2023-09-10T20:21:47.700Z,98332.59
2023-09-10T20:24:15.319Z,98344.81
2023-09-10T20:26:42.576Z,98330.00
2023-09-10T20:29:09.876Z,98333.28
2023-09-10T20:31:37.318Z,98328.81
2023-09-10T20:34:05.083Z,98332.69
2023-09-10T20:36:32.398Z,98325.53
2023-09-10T20:39:00.103Z,98325.72
2023-09-10T20:41:27.325Z,98333.81
2023-09-10T20:43:55.167Z,98335.09
2023-09-10T20:46:22.708Z,98322.63
2023-09-10T20:48:50.281Z,98333.41
2023-09-10T20:51:32.474Z,98334.03
2023-09-10T20:54:00.430Z,98337.16
2023-09-10T20:56:27.757Z,98327.28
2023-09-10T20:58:55.295Z,98336.19
2023-09-10T21:01:23.055Z,98333.72
2023-09-10T21:03:50.771Z,98326.31
2023-09-10T21:06:18.659Z,98324.06
2023-09-10T21:08:46.102Z,98320.41
2023-09-10T21:11:14.542Z,98330.28
2023-09-10T21:13:42.803Z,98325.56
2023-09-10T21:16:12.402Z,98327.38
2023-09-10T21:18:39.742Z,98331.13
2023-09-10T21:21:07.383Z,98328.84
2023-09-10T21:23:35.662Z,98343.56
2023-09-10T21:26:06.034Z,98334.47
2023-09-10T21:28:33.539Z,98339.28
2023-09-10T21:31:01.110Z,98333.97
2023-09-10T21:33:28.354Z,98327.34
2023-09-10T21:35:56.609Z,98322.06
2023-09-10T21:38:24.134Z,98321.59
2023-09-10T21:40:51.394Z,98319.59
2023-09-10T21:43:19.166Z,98308.50
2023-09-10T21:45:46.497Z,98318.00
2023-09-10T21:48:16.352Z,98323.38
2023-09-10T21:50:44.211Z,98330.06
2023-09-10T21:53:11.891Z,98330.50
2023-09-10T21:55:39.592Z,98331.56
2023-09-10T21:58:07.118Z,98321.69
2023-09-10T22:00:34.759Z,98325.84
2023-09-10T22:03:02.496Z,98326.66
2023-09-10T22:05:29.988Z,98324.78
2023-09-10T22:07:57.667Z,98336.41
2023-09-10T22:10:25.369Z,98321.38
2023-09-10T22:12:52.993Z,98328.63
2023-09-10T22:15:20.787Z,98323.22
2023-09-10T22:17:48.274Z,98329.66
2023-09-10T22:20:15.958Z,98333.03
2023-09-10T22:22:43.283Z,98328.47
2023-09-10T22:25:14.171Z,98321.50
2023-09-10T22:27:42.102Z,98307.66
2023-09-10T22:30:10.419Z,98323.34
2023-09-10T22:32:38.021Z,98304.59
2023-09-10T22:35:06.340Z,98321.13
2023-09-10T22:37:33.870Z,98315.34
2023-09-10T22:40:01.503Z,98309.78
2023-09-10T22:42:29.227Z,98316.81
2023-09-10T22:44:57.192Z,98317.63
2023-09-10T22:47:24.822Z,98306.50
2023-09-10T22:49:53.455Z,98322.00
2023-09-10T22:52:20.816Z,98308.97
2023-09-10T22:54:47.953Z,98321.38
2023-09-10T22:57:15.728Z,98316.44
2023-09-10T22:59:43.048Z,98315.84
2023-09-10T23:02:10.727Z,98319.50
2023-09-10T23:04:38.308Z,98323.66
2023-09-10T23:07:06.057Z,98326.13
2023-09-10T23:09:33.566Z,98317.44
2023-09-10T23:12:00.780Z,98318.31
2023-09-10T23:14:28.341Z,98316.44
2023-09-10T23:16:55.557Z,98321.78
2023-09-10T23:19:23.104Z,98309.78
2023-09-10T23:21:50.666Z,98320.78
2023-09-10T23:24:18.237Z,98314.34
2023-09-10T23:26:49.992Z,98320.97
2023-09-10T23:29:18.189Z,98334.34
2023-09-10T23:31:48.386Z,98332.63
2023-09-10T23:34:16.791Z,98324.13
2023-09-10T23:36:44.103Z,98329.00
2023-09-10T23:39:11.587Z,98333.97
2023-09-10T23:41:39.254Z,98330.56
2023-09-10T23:44:06.567Z,98322.91
2023-09-10T23:46:34.265Z,98336.91
2023-09-10T23:49:01.593Z,98326.59
2023-09-10T23:51:29.666Z,98332.41
2023-09-10T23:53:57.046Z,98320.91
2023-09-10T23:56:24.814Z,98335.16
2023-09-10T23:58:52.446Z,98332.25
